createdAt,value
2018-04-27T00:00:30.808Z,23.80
2018-04-27T00:02:59.175Z,24.53
2018-04-27T00:05:27.488Z,22.80
2018-04-27T00:07:55.835Z,27.48
2018-04-27T00:10:24.162Z,19.75
2018-04-27T00:12:52.512Z,14.77
2018-04-27T00:15:20.832Z,16.50
2018-04-27T00:17:49.180Z,24.42
2018-04-27T00:20:17.508Z,27.98
2018-04-27T00:22:45.851Z,22.98
2018-04-27T00:25:14.180Z,22.17
2018-04-27T00:27:42.530Z,16.80
2018-04-27T00:30:10.852Z,18.25
2018-04-27T00:32:39.196Z,17.30
2018-04-27T00:35:07.522Z,19.10
2018-04-27T00:37:35.869Z,17.30
2018-04-27T00:40:04.192Z,18.85
2018-04-27T00:42:32.542Z,20.67
2018-04-27T00:45:00.870Z,17.77
2018-04-27T00:47:29.215Z,23.08
2018-04-27T00:49:57.550Z,16.08
2018-04-27T00:52:25.897Z,22.37
2018-04-27T00:54:54.229Z,17.27
2018-04-27T00:57:22.572Z,14.40
2018-04-27T00:59:50.904Z,23.05
2018-04-27T01:02:19.253Z,21.52
2018-04-27T01:04:47.579Z,14.75
2018-04-27T01:07:15.927Z,17.60
2018-04-27T01:09:44.253Z,14.80
2018-04-27T01:12:12.596Z,21.55
2018-04-27T01:14:40.916Z,20.65
2018-04-27T01:17:09.252Z,14.57
2018-04-27T01:19:37.575Z,18.45
2018-04-27T01:22:05.921Z,15.50
2018-04-27T01:24:34.243Z,15.13
2018-04-27T01:27:02.580Z,16.20
2018-04-27T01:29:30.904Z,22.92
2018-04-27T01:31:59.220Z,14.93
2018-04-27T01:34:27.565Z,16.50
2018-04-27T01:36:55.888Z,17.87
2018-04-27T01:39:24.233Z,16.48
2018-04-27T01:41:52.553Z,14.23
2018-04-27T01:44:20.901Z,19.23
2018-04-27T01:46:49.227Z,12.73
2018-04-27T01:49:17.565Z,18.33
2018-04-27T01:51:45.883Z,14.20
2018-04-27T01:54:14.229Z,13.70
2018-04-27T01:56:42.561Z,21.42
2018-04-27T01:59:10.906Z,15.77
2018-04-27T02:01:39.215Z,17.45
2018-04-27T02:04:07.569Z,23.17
2018-04-27T02:06:35.892Z,22.87
2018-04-27T02:09:04.246Z,20.58
2018-04-27T02:11:32.573Z,19.08
2018-04-27T02:14:00.912Z,23.35
2018-04-27T02:16:29.572Z,18.65
2018-04-27T02:18:57.904Z,19.45
2018-04-27T02:21:26.228Z,17.23
2018-04-27T02:23:54.581Z,16.83
2018-04-27T02:26:22.900Z,21.37
2018-04-27T02:28:51.245Z,21.90
2018-04-27T02:31:19.575Z,17.83
2018-04-27T02:33:47.917Z,24.42
2018-04-27T02:36:16.240Z,18.80
2018-04-27T02:38:44.595Z,16.00
2018-04-27T02:41:12.912Z,18.25
2018-04-27T02:43:41.256Z,18.35
2018-04-27T02:46:09.581Z,16.15
2018-04-27T02:48:37.929Z,18.83
2018-04-27T02:51:06.256Z,21.85
2018-04-27T02:53:34.603Z,16.37
2018-04-27T02:56:02.928Z,26.33
2018-04-27T02:58:31.284Z,18.00
2018-04-27T03:00:59.608Z,18.15
2018-04-27T03:03:27.952Z,16.98
2018-04-27T03:05:56.330Z,14.75
2018-04-27T03:08:24.672Z,14.40
2018-04-27T03:10:52.989Z,21.33
2018-04-27T03:13:21.338Z,16.23
2018-04-27T03:15:49.661Z,19.25
2018-04-27T03:18:18.009Z,17.37
2018-04-27T03:20:46.345Z,27.02
2018-04-27T03:23:14.692Z,17.62
2018-04-27T03:25:43.021Z,19.67
2018-04-27T03:28:11.372Z,19.25
2018-04-27T03:30:39.701Z,20.17
2018-04-27T03:33:08.022Z,22.20
2018-04-27T03:35:36.373Z,22.55
2018-04-27T03:38:04.697Z,20.98
2018-04-27T03:40:33.047Z,20.52
2018-04-27T03:43:01.377Z,20.98
2018-04-27T03:45:29.740Z,24.63
2018-04-27T03:47:58.057Z,27.60
2018-04-27T03:50:26.397Z,17.08
2018-04-27T03:52:54.720Z,24.90
2018-04-27T03:55:23.064Z,20.00
2018-04-27T03:57:51.391Z,23.58
2018-04-27T04:00:31.720Z,20.67
2018-04-27T04:03:11.949Z,24.90
2018-04-27T04:05:40.291Z,27.83
2018-04-27T04:08:08.661Z,27.80
2018-04-27T04:10:36.969Z,17.80
2018-04-27T04:13:05.297Z,20.75
2018-04-27T04:15:33.649Z,34.85
2018-04-27T04:18:01.972Z,32.50
2018-04-27T04:20:30.312Z,23.95
2018-04-27T04:22:58.645Z,25.30
2018-04-27T04:25:26.998Z,24.85
2018-04-27T04:27:55.316Z,23.62
2018-04-27T04:30:23.664Z,30.37
2018-04-27T04:32:51.992Z,27.52
2018-04-27T04:35:20.332Z,27.10
2018-04-27T04:37:48.664Z,19.95
2018-04-27T04:40:17.012Z,21.48
2018-04-27T04:42:45.344Z,28.70
2018-04-27T04:45:13.701Z,27.25
2018-04-27T04:47:42.016Z,27.75
2018-04-27T04:50:10.369Z,17.87
2018-04-27T04:52:38.716Z,24.73
2018-04-27T04:55:07.040Z,24.30
2018-04-27T04:57:35.380Z,24.63
2018-04-27T05:00:03.728Z,28.90
2018-04-27T05:02:32.060Z,20.90
2018-04-27T05:05:00.412Z,28.27
2018-04-27T05:07:29.708Z,30.58
2018-04-27T05:09:58.060Z,27.13
2018-04-27T05:12:26.388Z,34.03
2018-04-27T05:14:54.740Z,22.50
2018-04-27T05:17:23.069Z,26.10
2018-04-27T05:19:54.783Z,32.03
2018-04-27T05:22:23.112Z,38.57
2018-04-27T05:24:51.453Z,22.20
2018-04-27T05:27:19.783Z,26.00
2018-04-27T05:29:49.287Z,27.30
2018-04-27T05:32:17.532Z,31.90
2018-04-27T05:34:45.879Z,32.33
2018-04-27T05:37:14.213Z,18.80
2018-04-27T05:39:42.576Z,21.63
2018-04-27T05:42:10.914Z,34.08
2018-04-27T05:44:39.274Z,24.97
2018-04-27T05:47:07.609Z,21.70
2018-04-27T05:49:35.964Z,23.67
2018-04-27T05:52:04.303Z,25.63
2018-04-27T05:54:32.778Z,22.80
2018-04-27T05:57:01.089Z,22.53
2018-04-27T05:59:29.420Z,24.27
2018-04-27T06:01:57.781Z,20.53
2018-04-27T06:04:26.117Z,30.80
2018-04-27T06:06:55.400Z,19.77
2018-04-27T06:09:24.551Z,22.53
2018-04-27T06:11:52.921Z,17.10
2018-04-27T06:14:21.254Z,25.17
2018-04-27T06:16:49.608Z,18.70
2018-04-27T06:19:17.945Z,22.67
2018-04-27T06:21:46.304Z,27.97
2018-04-27T06:24:14.640Z,21.37
2018-04-27T06:26:43.001Z,28.23
2018-04-27T06:29:11.568Z,23.42
2018-04-27T06:31:39.939Z,24.37
2018-04-27T06:34:08.269Z,18.77
2018-04-27T06:36:36.632Z,18.17
2018-04-27T06:39:04.965Z,17.85
2018-04-27T06:41:33.329Z,31.20
2018-04-27T06:44:01.660Z,16.42
2018-04-27T06:46:30.527Z,19.33
2018-04-27T06:48:59.807Z,20.17
2018-04-27T06:51:28.158Z,21.80
2018-04-27T06:53:56.487Z,19.50
2018-04-27T06:56:24.846Z,24.77
2018-04-27T06:58:53.176Z,16.70
2018-04-27T07:01:21.533Z,33.65
2018-04-27T07:03:49.864Z,17.42
2018-04-27T07:06:18.213Z,17.93
2018-04-27T07:08:46.536Z,22.17
2018-04-27T07:11:14.897Z,15.90
2018-04-27T07:13:43.213Z,16.83
2018-04-27T07:16:11.565Z,21.35
2018-04-27T07:18:39.898Z,18.85
2018-04-27T07:21:08.252Z,17.33
2018-04-27T07:23:36.585Z,13.77
2018-04-27T07:26:04.928Z,21.00
2018-04-27T07:28:34.153Z,21.35
2018-04-27T07:31:02.500Z,18.73
2018-04-27T07:33:30.834Z,17.30
2018-04-27T07:35:59.180Z,17.90
2018-04-27T07:38:27.504Z,22.70
2018-04-27T07:40:55.857Z,17.33
2018-04-27T07:43:24.179Z,14.60
2018-04-27T07:45:52.528Z,16.87
2018-04-27T07:48:20.874Z,25.90
2018-04-27T07:50:49.216Z,12.63
2018-04-27T07:53:17.548Z,16.33
2018-04-27T07:55:45.902Z,30.67
2018-04-27T07:58:14.245Z,19.80
2018-04-27T08:00:42.609Z,16.53
2018-04-27T08:03:10.940Z,17.98
2018-04-27T08:05:39.269Z,15.80
2018-04-27T08:08:08.514Z,23.23
2018-04-27T08:10:36.845Z,18.17
2018-04-27T08:13:05.222Z,21.30
2018-04-27T08:15:33.567Z,14.47
2018-04-27T08:18:01.917Z,17.37
2018-04-27T08:20:30.240Z,14.30
2018-04-27T08:22:59.516Z,46.90
2018-04-27T08:25:27.896Z,20.02
2018-04-27T08:27:56.242Z,16.40
2018-04-27T08:30:24.564Z,21.27
2018-04-27T08:32:52.945Z,16.10
2018-04-27T08:35:21.284Z,16.20
2018-04-27T08:37:49.627Z,19.45
2018-04-27T08:40:17.952Z,20.00
2018-04-27T08:42:46.305Z,14.95
2018-04-27T08:45:14.624Z,24.40
2018-04-27T08:47:42.980Z,25.37
2018-04-27T08:50:11.309Z,32.07
2018-04-27T08:52:39.656Z,16.63
2018-04-27T08:55:07.987Z,21.23
2018-04-27T08:57:36.340Z,14.93
2018-04-27T09:00:04.673Z,22.87
2018-04-27T09:02:33.026Z,21.50
2018-04-27T09:05:01.352Z,28.30
2018-04-27T09:07:30.625Z,18.33
2018-04-27T09:09:58.973Z,13.73
2018-04-27T09:12:27.317Z,27.13
2018-04-27T09:14:55.648Z,24.12
2018-04-27T09:17:24.013Z,16.48
2018-04-27T09:19:52.405Z,18.40
2018-04-27T09:22:20.762Z,17.50
2018-04-27T09:24:49.088Z,17.53
2018-04-27T09:27:18.337Z,16.23
2018-04-27T09:29:46.668Z,18.13
2018-04-27T09:32:15.198Z,15.13
2018-04-27T09:34:43.487Z,8.23
2018-04-27T09:37:11.842Z,15.67
2018-04-27T09:39:40.177Z,15.07
2018-04-27T09:42:08.524Z,22.80
2018-04-27T09:44:36.852Z,15.47
2018-04-27T09:47:05.195Z,6.53
2018-04-27T09:49:33.517Z,8.90
2018-04-27T09:52:01.862Z,7.50
2018-04-27T09:54:30.191Z,10.90
2018-04-27T09:56:58.545Z,10.88
2018-04-27T09:59:26.870Z,12.00
2018-04-27T10:01:55.221Z,10.18
2018-04-27T10:04:23.543Z,9.50
2018-04-27T10:06:51.865Z,4.83
2018-04-27T10:09:20.212Z,23.52
2018-04-27T10:11:48.545Z,12.33
2018-04-27T10:14:16.889Z,7.80
2018-04-27T10:16:45.212Z,11.23
2018-04-27T10:19:13.557Z,10.00
2018-04-27T10:21:41.882Z,10.50
2018-04-27T10:24:10.225Z,6.13
2018-04-27T10:26:38.553Z,12.10
2018-04-27T10:29:06.905Z,12.40
2018-04-27T10:31:35.221Z,9.33
2018-04-27T10:34:03.565Z,10.87
2018-04-27T10:36:32.009Z,8.30
2018-04-27T10:39:00.262Z,10.10
2018-04-27T10:41:28.584Z,11.60
2018-04-27T10:43:56.932Z,10.30
2018-04-27T10:46:25.256Z,4.57
2018-04-27T10:48:53.604Z,8.10
2018-04-27T10:51:21.924Z,14.13
2018-04-27T10:53:50.266Z,9.17
2018-04-27T10:56:18.588Z,11.83
2018-04-27T10:58:46.928Z,10.70
2018-04-27T11:01:15.253Z,15.40
2018-04-27T11:03:43.600Z,12.60
2018-04-27T11:06:11.929Z,10.40
2018-04-27T11:08:40.318Z,11.20
2018-04-27T11:11:08.601Z,8.80
2018-04-27T11:13:36.941Z,9.13
2018-04-27T11:16:05.256Z,9.00
2018-04-27T11:18:33.600Z,15.80
2018-04-27T11:21:01.921Z,6.60
2018-04-27T11:23:30.260Z,9.03
2018-04-27T11:25:58.588Z,12.40
2018-04-27T11:28:26.928Z,9.83
2018-04-27T11:30:55.249Z,4.40
2018-04-27T11:33:23.592Z,12.47
2018-04-27T11:35:51.917Z,13.37
2018-04-27T11:38:20.261Z,6.47
2018-04-27T11:40:48.579Z,8.03
2018-04-27T11:43:16.921Z,6.27
2018-04-27T11:45:45.235Z,3.87
2018-04-27T11:48:13.583Z,5.23
2018-04-27T11:51:11.412Z,11.70
2018-04-27T11:53:39.756Z,8.53
2018-04-27T11:56:08.175Z,6.60
2018-04-27T11:58:36.426Z,6.17
2018-04-27T12:01:04.749Z,8.33
2018-04-27T12:03:33.094Z,9.60
2018-04-27T12:06:01.417Z,4.43
2018-04-27T12:08:29.793Z,7.67
2018-04-27T12:10:58.120Z,7.85
2018-04-27T12:13:26.914Z,6.40
2018-04-27T12:15:55.301Z,5.63
2018-04-27T12:18:24.331Z,6.30
2018-04-27T12:20:52.731Z,7.13
2018-04-27T12:23:21.077Z,4.07
2018-04-27T12:25:49.407Z,7.37
2018-04-27T12:28:17.762Z,8.67
2018-04-27T12:30:46.085Z,8.00
2018-04-27T12:33:14.411Z,8.63
2018-04-27T12:35:42.747Z,6.80
2018-04-27T12:38:11.082Z,12.82
2018-04-27T12:40:39.424Z,6.37
2018-04-27T12:43:07.749Z,9.73
2018-04-27T12:45:36.094Z,10.00
2018-04-27T12:48:04.427Z,15.20
2018-04-27T12:50:32.772Z,8.87
2018-04-27T12:53:01.100Z,8.93
2018-04-27T12:55:29.456Z,14.03
2018-04-27T12:57:57.785Z,10.00
2018-04-27T13:00:26.132Z,3.60
2018-04-27T13:02:54.451Z,9.17
2018-04-27T13:05:22.792Z,7.00
2018-04-27T13:07:51.164Z,8.05
2018-04-27T13:10:19.463Z,5.10
2018-04-27T13:12:47.787Z,9.87
2018-04-27T13:15:16.132Z,9.77
2018-04-27T13:17:44.456Z,8.20
2018-04-27T13:20:12.796Z,4.60
2018-04-27T13:22:41.120Z,5.40
2018-04-27T13:25:09.461Z,8.73
2018-04-27T13:27:37.785Z,6.03
2018-04-27T13:30:06.147Z,3.53
2018-04-27T13:32:34.460Z,10.90
2018-04-27T13:35:02.840Z,8.20
2018-04-27T13:37:31.156Z,9.80
2018-04-27T13:39:59.559Z,11.30
2018-04-27T13:42:28.912Z,15.13
2018-04-27T13:44:57.264Z,5.40
2018-04-27T13:47:25.593Z,13.33
2018-04-27T13:49:53.939Z,13.17
2018-04-27T13:52:22.323Z,6.50
2018-04-27T13:54:50.785Z,3.83
2018-04-27T13:57:19.226Z,6.83
2018-04-27T13:59:47.568Z,5.63
2018-04-27T14:02:15.898Z,7.00
2018-04-27T14:04:44.241Z,13.83
2018-04-27T14:07:12.573Z,11.17
2018-04-27T14:09:40.923Z,4.60
2018-04-27T14:12:09.253Z,14.38
2018-04-27T14:14:37.596Z,4.83
2018-04-27T14:17:05.925Z,5.87
2018-04-27T14:19:34.261Z,3.63
2018-04-27T14:22:02.593Z,12.97
2018-04-27T14:24:30.940Z,6.40
2018-04-27T14:26:59.261Z,6.83
2018-04-27T14:29:27.599Z,9.03
2018-04-27T14:31:55.998Z,5.18
2018-04-27T14:34:24.248Z,8.10
2018-04-27T14:36:52.593Z,5.28
2018-04-27T14:39:20.916Z,7.60
2018-04-27T14:41:49.261Z,15.50
2018-04-27T14:44:17.592Z,6.53
2018-04-27T14:46:45.933Z,10.77
2018-04-27T14:49:14.261Z,7.43
2018-04-27T14:51:42.600Z,3.22
2018-04-27T14:54:10.933Z,7.68
2018-04-27T14:56:39.303Z,5.30
2018-04-27T14:59:07.613Z,7.53
2018-04-27T15:01:36.006Z,4.30
2018-04-27T15:04:04.276Z,6.85
2018-04-27T15:06:32.628Z,4.37
2018-04-27T15:09:00.948Z,8.80
2018-04-27T15:11:29.292Z,8.63
2018-04-27T15:13:57.616Z,7.20
2018-04-27T15:16:25.976Z,8.10
2018-04-27T15:18:54.300Z,6.90
2018-04-27T15:21:22.644Z,10.27
2018-04-27T15:23:50.973Z,22.83
2018-04-27T15:26:19.316Z,7.67
2018-04-27T15:28:47.653Z,11.93
2018-04-27T15:31:16.004Z,5.65
2018-04-27T15:33:44.372Z,10.60
2018-04-27T15:36:12.817Z,8.23
2018-04-27T15:38:41.081Z,9.37
2018-04-27T15:41:09.420Z,8.63
2018-04-27T15:43:37.746Z,5.70
2018-04-27T15:46:06.089Z,7.50
2018-04-27T15:48:34.413Z,5.28
2018-04-27T15:51:02.761Z,7.83
2018-04-27T15:53:31.084Z,7.87
2018-04-27T15:55:59.429Z,5.53
2018-04-27T15:58:27.752Z,10.90
2018-04-27T16:00:56.105Z,8.20
2018-04-27T16:03:24.847Z,5.60
2018-04-27T16:05:53.288Z,9.43
2018-04-27T16:08:21.613Z,12.53
2018-04-27T16:10:49.960Z,7.90
2018-04-27T16:16:16.661Z,6.60
2018-04-27T16:18:44.984Z,7.30
2018-04-27T16:21:13.384Z,15.07
2018-04-27T16:23:41.660Z,9.27
2018-04-27T16:26:10.004Z,3.92
2018-04-27T16:28:38.328Z,7.68
2018-04-27T16:31:06.668Z,10.60
2018-04-27T16:33:34.996Z,17.35
2018-04-27T16:36:04.310Z,15.50
2018-04-27T16:38:32.625Z,8.10
2018-04-27T16:41:00.977Z,15.57
2018-04-27T16:43:29.304Z,9.03
2018-04-27T16:45:57.644Z,8.90
2018-04-27T16:48:25.980Z,9.27
2018-04-27T16:50:54.325Z,6.20
2018-04-27T16:53:22.646Z,7.23
2018-04-27T16:55:51.009Z,15.57
2018-04-27T16:58:19.340Z,10.93
2018-04-27T17:00:47.671Z,10.83
2018-04-27T17:03:16.020Z,21.55
2018-04-27T17:05:44.354Z,18.00
2018-04-27T17:08:12.704Z,16.87
2018-04-27T17:10:41.033Z,7.78
2018-04-27T17:13:09.394Z,4.33
2018-04-27T17:15:38.553Z,7.93
2018-04-27T17:18:06.891Z,7.97
2018-04-27T17:20:35.211Z,8.77
2018-04-27T17:23:03.552Z,6.93
2018-04-27T17:25:31.876Z,7.80
2018-04-27T17:28:00.216Z,8.40
2018-04-27T17:30:28.541Z,7.83
2018-04-27T17:32:56.892Z,10.67
2018-04-27T17:35:25.295Z,9.30
2018-04-27T17:37:53.557Z,7.60
2018-04-27T17:40:21.947Z,10.27
2018-04-27T17:42:50.220Z,7.62
2018-04-27T17:45:18.553Z,12.88
2018-04-27T17:47:46.900Z,12.87
2018-04-27T17:50:15.224Z,8.60
2018-04-27T17:52:43.569Z,9.10
2018-04-27T17:55:11.893Z,9.77
2018-04-27T17:57:40.235Z,5.93
2018-04-27T18:00:08.560Z,13.93
2018-04-27T18:02:36.908Z,12.07
2018-04-27T18:05:05.235Z,4.50
2018-04-27T18:07:33.621Z,10.23
2018-04-27T18:10:01.906Z,11.23
2018-04-27T18:12:30.741Z,7.65
2018-04-27T18:14:59.072Z,14.40
2018-04-27T18:17:27.412Z,14.10
2018-04-27T18:19:55.732Z,6.13
2018-04-27T18:22:24.078Z,6.60
2018-04-27T18:24:52.401Z,9.43
2018-04-27T18:27:21.752Z,12.02
2018-04-27T18:29:50.126Z,12.70
2018-04-27T18:32:19.301Z,10.23
2018-04-27T18:34:47.631Z,7.90
2018-04-27T18:37:15.977Z,7.37
2018-04-27T18:39:44.301Z,9.80
2018-04-27T18:42:18.524Z,11.77
2018-04-27T18:44:46.850Z,7.30
2018-04-27T18:47:15.188Z,7.87
2018-04-27T18:49:43.517Z,9.13
2018-04-27T18:52:11.867Z,11.55
2018-04-27T18:54:40.820Z,10.02
2018-04-27T18:57:09.164Z,10.17
2018-04-27T18:59:37.492Z,8.83
2018-04-27T19:02:05.861Z,15.05
2018-04-27T19:04:34.188Z,12.45
2018-04-27T19:07:02.515Z,17.57
2018-04-27T19:09:30.864Z,15.57
2018-04-27T19:11:59.200Z,12.33
2018-04-27T19:14:27.548Z,9.45
2018-04-27T19:16:55.860Z,6.03
2018-04-27T19:19:24.212Z,16.83
2018-04-27T19:21:52.532Z,9.60
2018-04-27T19:24:20.887Z,15.27
2018-04-27T19:26:49.218Z,10.03
2018-04-27T19:29:17.570Z,8.47
2018-04-27T19:31:45.902Z,9.90
2018-04-27T19:34:14.291Z,10.48
2018-04-27T19:36:42.612Z,7.67
2018-04-27T19:39:10.969Z,9.50
2018-04-27T19:41:39.298Z,9.23
2018-04-27T19:44:07.643Z,14.93
2018-04-27T19:46:35.972Z,8.30
2018-04-27T19:49:04.320Z,10.13
2018-04-27T19:51:32.656Z,13.30
2018-04-27T19:54:01.008Z,18.27
2018-04-27T19:56:29.352Z,6.33
2018-04-27T19:58:57.735Z,11.83
2018-04-27T20:01:26.048Z,4.50
2018-04-27T20:03:54.380Z,12.30
2018-04-27T20:06:22.715Z,10.00
2018-04-27T20:08:51.055Z,10.45
2018-04-27T20:11:19.462Z,9.87
2018-04-27T20:13:47.778Z,15.27
2018-04-27T20:16:27.876Z,12.37
2018-04-27T20:18:56.224Z,8.73
2018-04-27T20:21:24.545Z,11.20
2018-04-27T20:23:52.892Z,7.40
2018-04-27T20:26:21.213Z,9.07
2018-04-27T20:28:50.506Z,8.15
2018-04-27T20:31:18.845Z,6.70
2018-04-27T20:33:47.188Z,5.70
2018-04-27T20:36:15.512Z,13.65
2018-04-27T20:38:43.871Z,11.07
2018-04-27T20:41:13.184Z,6.93
2018-04-27T20:43:43.049Z,10.13
2018-04-27T20:46:11.377Z,4.62
2018-04-27T20:48:39.728Z,9.53
2018-04-27T20:51:08.859Z,14.05
2018-04-27T20:53:51.945Z,14.30
2018-04-27T20:56:20.268Z,8.47
2018-04-27T20:58:48.611Z,8.73
2018-04-27T21:01:16.935Z,10.82
2018-04-27T21:03:45.297Z,24.53
2018-04-27T21:06:14.215Z,17.77
2018-04-27T21:08:42.560Z,9.98
2018-04-27T21:11:10.885Z,8.33
2018-04-27T21:13:39.228Z,9.33
2018-04-27T21:16:07.558Z,9.37
2018-04-27T21:18:35.904Z,7.97
2018-04-27T21:21:04.236Z,10.47
2018-04-27T21:23:32.589Z,10.30
2018-04-27T21:26:00.925Z,11.50
2018-04-27T21:28:30.789Z,12.73
2018-04-27T21:30:59.912Z,6.40
2018-04-27T21:33:28.232Z,5.63
2018-04-27T21:35:57.177Z,12.20
2018-04-27T21:38:40.395Z,15.63
2018-04-27T21:41:23.751Z,13.32
2018-04-27T21:43:52.849Z,11.82
2018-04-27T21:46:25.133Z,9.57
2018-04-27T21:48:53.469Z,8.80
2018-04-27T21:51:41.217Z,10.27
2018-04-27T21:54:10.465Z,11.00
2018-04-27T21:56:47.336Z,17.10
2018-04-27T21:59:19.156Z,11.23
2018-04-27T22:01:47.480Z,8.70
2018-04-27T22:04:15.825Z,6.07
2018-04-27T22:06:44.144Z,7.20
2018-04-27T22:09:12.496Z,7.45
2018-04-27T22:11:49.540Z,8.90
2018-04-27T22:14:23.221Z,8.18
2018-04-27T22:16:52.328Z,4.70
2018-04-27T22:19:20.685Z,12.00
2018-04-27T22:21:51.731Z,7.90
2018-04-27T22:24:22.793Z,7.80
2018-04-27T22:27:06.157Z,10.10
2018-04-27T22:29:35.324Z,6.03
2018-04-27T22:32:23.252Z,7.60
2018-04-27T22:34:54.300Z,3.75
2018-04-27T22:37:22.615Z,8.37
2018-04-27T22:42:56.586Z,15.30
2018-04-27T22:45:25.680Z,13.65
2018-04-27T22:51:14.628Z,8.23
2018-04-27T22:53:48.513Z,12.32
2018-04-27T22:59:31.436Z,5.15
2018-04-27T23:04:59.541Z,7.60
2018-04-27T23:07:37.001Z,14.10
2018-04-27T23:10:07.108Z,18.87
2018-04-27T23:12:35.441Z,10.00
2018-04-27T23:15:05.465Z,21.95
2018-04-27T23:17:33.817Z,4.97
2018-04-27T23:20:03.732Z,9.60
2018-04-27T23:22:38.483Z,6.57
2018-04-27T23:25:23.436Z,9.60
2018-04-27T23:27:51.764Z,7.47
2018-04-27T23:30:22.649Z,14.65
2018-04-27T23:32:50.981Z,5.05
2018-04-27T23:35:19.321Z,6.97
2018-04-27T23:37:47.661Z,10.57
2018-04-27T23:40:16.004Z,9.93
2018-04-27T23:42:44.332Z,11.35
2018-04-27T23:45:15.217Z,9.48
2018-04-27T23:47:43.535Z,10.80
2018-04-27T23:50:22.449Z,6.18
2018-04-27T23:52:50.776Z,11.65
2018-04-27T23:55:19.132Z,13.95
2018-04-27T23:57:47.465Z,14.90
